This is the latest recevied weather packets stored in our database for station/object HOWARD. If no packets are shown the sender has not sent any weather packets the latest 10 day(s).
| Time | Temp. | Humidity | Pressure | Rain* | Wind** | Luminosity | Snow |
|---|---|---|---|---|---|---|---|
| 1777864306 | 6.67° C | 68% | 1011.1 hPa | 0 mm | - | - | - |
| 1777864100 | 7.22° C | 65% | 1011.1 hPa | 0 mm | - | - | - |
| 1777863706 | 7.22° C | 65% | 1011.1 hPa | 0 mm | - | - | - |
| 1777863148 | 7.22° C | 66% | 1011 hPa | 0 mm | - | - | - |
| 1777863106 | 7.22° C | 66% | 1011 hPa | 0 mm | - | - | - |
| 1777862506 | 7.78° C | 65% | 1011.1 hPa | 0 mm | - | - | - |
| 1777861906 | 8.33° C | 63% | 1011.1 hPa | 0 mm | - | - | - |
| 1777861306 | 8.89° C | 60% | 1011 hPa | 0 mm | - | - | - |
| 1777860706 | 8.89° C | 61% | 1011 hPa | 0 mm | - | - | - |
| 1777860106 | 8.89° C | 59% | 1011.1 hPa | 0 mm | - | - | - |
| 1777859506 | 8.89° C | 59% | 1011 hPa | 0 mm | - | - | - |
| 1777858906 | 8.89° C | 59% | 1011.1 hPa | 0 mm | - | - | - |
| 1777858306 | 10° C | 56% | 1011.1 hPa | 0 mm | - | - | - |
| 1777857706 | 10° C | 49% | 1011.2 hPa | 0 mm | - | - | - |
| 1777857106 | 11.67° C | 46% | 1011.5 hPa | 0 mm | - | - | - |
| 1777856506 | 11.11° C | 44% | 1011.6 hPa | 0 mm | - | - | - |
| 1777855937 | 11.11° C | 44% | 1011.6 hPa | 0 mm | - | - | - |
| 1777855906 | 11.11° C | 44% | 1011.6 hPa | 0 mm | - | - | - |
| 1777855306 | 10.56° C | 46% | 1011.8 hPa | 0 mm | - | - | - |
| 1777854706 | 11.11° C | 45% | 1011.8 hPa | 0 mm | - | - | - |
| 1777854106 | 11.67° C | 44% | 1011.9 hPa | 0 mm | - | - | - |
| 1777853505 | 11.11° C | 47% | 1011.9 hPa | 0 mm | - | - | - |
| 1777852941 | 10.56° C | 48% | 1012 hPa | 0 mm | - | - | - |
| 1777852906 | 10.56° C | 48% | 1012 hPa | 0 mm | - | - | - |
| 1777852469 | 11.11° C | 47% | 1012 hPa | 0 mm | - | 1761 W/m² | - |
* Rain latest hour (hover to see other rain measurements)
** Current wind speed in m/s (hover to see current wind gust speed)